createdAt,value
2023-04-05T00:01:20.074Z,3.85
2023-04-05T00:03:48.678Z,4.32
2023-04-05T00:06:17.054Z,3.13
2023-04-05T00:08:50.071Z,5.85
2023-04-05T00:11:18.948Z,5.93
2023-04-05T00:13:48.554Z,4.20
2023-04-05T00:16:17.283Z,4.47
2023-04-05T00:18:49.850Z,4.15
2023-04-05T00:21:18.458Z,5.65
2023-04-05T00:23:46.810Z,4.75
2023-04-05T00:26:15.021Z,3.80
2023-04-05T00:28:50.064Z,5.30
2023-04-05T00:31:19.189Z,4.90
2023-04-05T00:33:47.910Z,5.80
2023-04-05T00:36:17.851Z,8.32
2023-04-05T00:38:47.646Z,11.65
2023-04-05T00:41:16.117Z,9.38
2023-04-05T00:43:44.641Z,14.98
2023-04-05T00:46:14.329Z,11.70
2023-04-05T00:48:42.970Z,14.35
2023-04-05T00:51:12.224Z,13.70
2023-04-05T00:53:43.075Z,16.67
2023-04-05T00:56:13.587Z,20.92
2023-04-05T00:58:42.700Z,14.48
2023-04-05T01:01:18.624Z,15.30
2023-04-05T01:03:53.830Z,15.15
2023-04-05T01:06:54.205Z,14.90
2023-04-05T01:09:34.734Z,15.50
2023-04-05T01:12:06.704Z,12.13
2023-04-05T01:14:45.943Z,12.85
2023-04-05T01:17:16.500Z,12.40
2023-04-05T01:19:48.216Z,7.25
2023-04-05T01:23:07.624Z,5.47
2023-04-05T01:26:15.173Z,7.45
2023-04-05T01:29:01.123Z,5.50
2023-04-05T01:31:38.552Z,5.03
2023-04-05T01:34:18.207Z,3.90
2023-04-05T01:36:52.174Z,5.70
2023-04-05T01:39:22.130Z,7.07
2023-04-05T01:41:50.480Z,4.43
2023-04-05T01:44:18.783Z,5.35
2023-04-05T01:46:48.539Z,5.13
2023-04-05T01:49:16.889Z,5.97
2023-04-05T01:51:45.040Z,6.90
2023-04-05T01:54:13.285Z,4.93
2023-04-05T01:56:41.502Z,4.00
2023-04-05T01:59:09.911Z,5.63
2023-04-05T02:01:38.404Z,5.70
2023-04-05T02:04:08.030Z,5.13
2023-04-05T02:06:38.172Z,5.45
2023-04-05T02:09:06.563Z,4.43
2023-04-05T02:11:34.827Z,5.78
2023-04-05T02:14:04.158Z,4.80
2023-04-05T02:16:33.631Z,4.13
2023-04-05T02:19:02.356Z,4.60
2023-04-05T02:21:32.191Z,5.22
2023-04-05T02:24:00.467Z,4.63
2023-04-05T02:26:30.186Z,5.80
2023-04-05T02:28:59.208Z,5.63
2023-04-05T02:31:27.999Z,6.43
2023-04-05T02:33:57.925Z,7.95
2023-04-05T02:36:28.359Z,4.45
2023-04-05T02:38:58.126Z,8.18
2023-04-05T02:41:26.474Z,4.32
2023-04-05T02:43:54.742Z,5.47
2023-04-05T02:46:23.160Z,4.38
2023-04-05T02:48:51.382Z,5.07
2023-04-05T02:51:20.894Z,6.75
2023-04-05T02:53:49.892Z,7.80
2023-04-05T02:56:21.988Z,6.97
2023-04-05T02:58:50.293Z,4.78
2023-04-05T03:01:24.688Z,5.93
2023-04-05T03:03:53.065Z,5.30
2023-04-05T03:06:22.498Z,6.45
2023-04-05T03:08:53.836Z,7.20
2023-04-05T03:11:26.631Z,8.65
2023-04-05T03:13:58.828Z,8.77
2023-04-05T03:16:40.568Z,9.75
2023-04-05T03:19:32.403Z,10.57
2023-04-05T03:22:11.161Z,8.00
2023-04-05T03:24:42.623Z,11.38
2023-04-05T03:27:14.993Z,7.03
2023-04-05T03:30:05.446Z,7.47
2023-04-05T03:32:38.184Z,6.70
2023-04-05T03:35:22.276Z,5.60
2023-04-05T03:37:51.571Z,8.48
2023-04-05T03:40:20.552Z,8.02
2023-04-05T03:42:51.667Z,8.63
2023-04-05T03:45:23.802Z,7.90
2023-04-05T03:47:53.608Z,5.57
2023-04-05T03:50:22.473Z,5.83
2023-04-05T03:52:50.917Z,5.70
2023-04-05T03:55:19.298Z,8.80
2023-04-05T03:57:49.069Z,6.47
2023-04-05T04:00:29.735Z,10.50
2023-04-05T04:03:15.209Z,5.35
2023-04-05T04:05:47.330Z,5.65
2023-04-05T04:08:15.658Z,6.75
2023-04-05T04:10:43.853Z,7.40
2023-04-05T04:13:25.208Z,4.55
2023-04-05T04:16:04.615Z,10.18
2023-04-05T04:18:48.098Z,5.75
2023-04-05T04:21:33.763Z,6.20
2023-04-05T04:24:18.939Z,6.15
2023-04-05T04:26:47.408Z,5.97
2023-04-05T04:29:31.302Z,7.03
2023-04-05T04:32:26.886Z,8.60
2023-04-05T04:35:18.329Z,6.13
2023-04-05T04:38:20.529Z,9.27
2023-04-05T04:41:08.739Z,8.48
2023-04-05T04:43:45.550Z,8.00
2023-04-05T04:46:43.480Z,5.55
2023-04-05T04:49:21.573Z,7.53
2023-04-05T04:51:50.088Z,9.57
2023-04-05T04:54:22.353Z,4.82
2023-04-05T04:56:50.707Z,6.10
2023-04-05T04:59:18.889Z,10.32
2023-04-05T05:01:47.222Z,9.55
2023-04-05T05:04:15.578Z,5.60
2023-04-05T05:06:45.773Z,6.20
2023-04-05T05:09:13.994Z,7.37
2023-04-05T05:11:49.349Z,5.57
2023-04-05T05:14:17.559Z,7.43
2023-04-05T05:16:45.938Z,6.53
2023-04-05T05:19:14.188Z,8.80
2023-04-05T05:21:50.144Z,10.10
2023-04-05T05:24:18.498Z,6.72
2023-04-05T05:26:46.692Z,5.30
2023-04-05T05:29:14.920Z,8.30
2023-04-05T05:31:46.360Z,7.45
2023-04-05T05:34:14.621Z,9.70
2023-04-05T05:36:51.586Z,7.53
2023-04-05T05:39:20.686Z,8.52
2023-04-05T05:41:49.317Z,7.72
2023-04-05T05:44:17.641Z,6.68
2023-04-05T05:46:45.903Z,5.90
2023-04-05T05:49:14.100Z,5.97
2023-04-05T05:51:42.318Z,6.60
2023-04-05T05:54:11.909Z,8.83
2023-04-05T05:56:40.226Z,8.07
2023-04-05T05:59:08.523Z,6.47
2023-04-05T06:01:38.342Z,10.38
2023-04-05T06:04:06.987Z,8.77
2023-04-05T06:06:37.745Z,7.35
2023-04-05T06:09:06.218Z,7.47
2023-04-05T06:11:38.921Z,10.80
2023-04-05T06:14:11.901Z,9.07
2023-04-05T06:16:40.618Z,7.20
2023-04-05T06:19:09.033Z,9.80
2023-04-05T06:21:37.300Z,9.15
2023-04-05T06:24:05.941Z,9.02
2023-04-05T06:26:35.677Z,8.27
2023-04-05T06:29:03.903Z,10.38
2023-04-05T06:31:35.233Z,9.27
2023-04-05T06:34:03.699Z,7.47
2023-04-05T06:36:34.094Z,8.25
2023-04-05T06:39:03.219Z,8.15
2023-04-05T06:41:31.926Z,11.80
2023-04-05T06:44:03.256Z,10.90
2023-04-05T06:46:32.172Z,9.10
2023-04-05T06:49:03.565Z,8.65
2023-04-05T06:51:32.245Z,9.18
2023-04-05T06:54:00.888Z,7.32
2023-04-05T06:56:30.080Z,9.05
2023-04-05T06:58:59.630Z,11.23
2023-04-05T07:01:29.973Z,8.43
2023-04-05T07:03:58.438Z,7.43
2023-04-05T07:06:26.711Z,8.18
2023-04-05T07:08:55.037Z,7.30
2023-04-05T07:11:23.265Z,7.13
2023-04-05T07:13:51.498Z,9.10
2023-04-05T07:16:23.632Z,10.57
2023-04-05T07:18:53.649Z,9.48
2023-04-05T07:21:21.855Z,8.10
2023-04-05T07:23:50.301Z,7.28
2023-04-05T07:26:18.551Z,9.85
2023-04-05T07:28:46.888Z,8.15
2023-04-05T07:31:16.509Z,6.70
2023-04-05T07:33:46.172Z,11.88
2023-04-05T07:36:15.796Z,8.60
2023-04-05T07:38:44.850Z,7.07
2023-04-05T07:41:13.003Z,9.83
2023-04-05T07:43:41.262Z,7.10
2023-04-05T07:46:09.542Z,6.90
2023-04-05T07:48:37.757Z,10.45
2023-04-05T07:51:07.277Z,6.43
2023-04-05T07:53:38.163Z,9.70
2023-04-05T07:56:06.859Z,7.50
2023-04-05T07:58:35.780Z,7.18
2023-04-05T08:01:05.925Z,9.23
2023-04-05T08:03:35.337Z,10.88
2023-04-05T08:06:11.872Z,8.10
2023-04-05T08:08:41.587Z,6.80
2023-04-05T08:11:09.753Z,9.27
2023-04-05T08:13:40.542Z,4.47
2023-04-05T08:16:09.428Z,7.53
2023-04-05T08:18:38.161Z,5.53
2023-04-05T08:21:06.625Z,4.82
2023-04-05T08:23:34.845Z,4.38
2023-04-05T08:26:04.853Z,8.70
2023-04-05T08:28:33.077Z,3.75
2023-04-05T08:31:01.546Z,4.80
2023-04-05T08:33:31.211Z,8.10
2023-04-05T08:36:04.634Z,4.70
2023-04-05T08:38:32.912Z,4.68
2023-04-05T08:41:09.969Z,5.07
2023-04-05T08:43:48.995Z,8.77
2023-04-05T08:46:18.881Z,5.22
2023-04-05T08:48:47.192Z,4.70
2023-04-05T08:51:19.191Z,6.20
2023-04-05T08:53:47.581Z,8.27
2023-04-05T08:56:22.170Z,5.73
2023-04-05T08:58:59.068Z,5.22
2023-04-05T09:01:30.955Z,5.22
2023-04-05T09:04:02.730Z,6.80
2023-04-05T09:06:31.054Z,7.45
2023-04-05T09:08:59.787Z,6.88
2023-04-05T09:11:29.313Z,3.95
2023-04-05T09:13:57.845Z,5.03
2023-04-05T09:16:28.297Z,6.60
2023-04-05T09:18:56.536Z,5.32
2023-04-05T09:21:24.768Z,6.07
2023-04-05T09:23:55.767Z,6.55
2023-04-05T09:26:25.682Z,3.72
2023-04-05T09:28:59.888Z,3.70
2023-04-05T09:31:32.712Z,5.50
2023-04-05T09:34:02.173Z,4.88
2023-04-05T09:36:30.711Z,6.93
2023-04-05T09:39:08.084Z,4.32
2023-04-05T09:41:37.721Z,6.30
2023-04-05T09:44:07.426Z,4.75
2023-04-05T09:46:38.690Z,2.93
2023-04-05T09:49:09.550Z,3.38
2023-04-05T09:51:39.628Z,4.63
2023-04-05T09:54:12.317Z,3.40
2023-04-05T09:56:42.692Z,2.30
2023-04-05T09:59:13.177Z,4.30
2023-04-05T10:01:45.326Z,3.20
2023-04-05T10:04:13.796Z,3.70
2023-04-05T10:06:43.875Z,3.55
2023-04-05T10:09:15.203Z,2.58
2023-04-05T10:11:45.108Z,3.45
2023-04-05T10:14:15.693Z,3.73
2023-04-05T10:16:50.492Z,5.30
2023-04-05T10:19:29.038Z,3.77
2023-04-05T10:21:59.273Z,4.80
2023-04-05T10:24:36.795Z,4.13
2023-04-05T10:27:08.803Z,3.15
2023-04-05T10:29:49.403Z,5.60
2023-04-05T10:32:24.903Z,2.80
2023-04-05T10:35:01.883Z,5.00
2023-04-05T10:37:48.342Z,3.90
2023-04-05T10:40:20.537Z,4.45
2023-04-05T10:42:49.855Z,3.55
2023-04-05T10:45:22.597Z,3.60
2023-04-05T10:47:55.541Z,4.63
2023-04-05T10:50:24.949Z,4.60
2023-04-05T10:52:54.220Z,3.70
2023-04-05T10:55:22.966Z,3.05
2023-04-05T10:57:51.860Z,3.65
2023-04-05T11:00:23.526Z,5.25
2023-04-05T11:02:56.290Z,4.88
2023-04-05T11:05:33.001Z,5.57
2023-04-05T11:08:09.250Z,4.10
2023-04-05T11:10:39.436Z,4.90
2023-04-05T11:13:11.928Z,4.03
2023-04-05T11:15:41.643Z,4.47
2023-04-05T11:18:12.158Z,4.65
2023-04-05T11:20:52.458Z,6.82
2023-04-05T11:23:23.221Z,3.75
2023-04-05T11:25:53.302Z,3.83
2023-04-05T11:28:32.159Z,4.70
2023-04-05T11:31:14.881Z,5.85
2023-04-05T11:33:58.668Z,3.87
2023-04-05T11:36:34.999Z,4.53
2023-04-05T11:39:25.542Z,3.75
2023-04-05T11:42:00.157Z,3.88
2023-04-05T11:44:34.335Z,6.45
2023-04-05T11:47:05.960Z,4.60
2023-04-05T11:49:35.299Z,4.68
2023-04-05T11:52:12.996Z,7.80
2023-04-05T11:54:46.333Z,3.60
2023-04-05T11:57:17.291Z,3.88
2023-04-05T11:59:45.779Z,5.28
2023-04-05T12:02:15.959Z,5.68
2023-04-05T12:04:44.310Z,4.50
2023-04-05T12:07:14.572Z,5.28
2023-04-05T12:10:02.705Z,3.70
2023-04-05T12:12:35.377Z,4.53
2023-04-05T12:15:05.861Z,5.15
2023-04-05T12:17:47.176Z,5.18
2023-04-05T12:20:17.714Z,7.03
2023-04-05T12:22:48.427Z,5.85
2023-04-05T12:25:17.684Z,3.88
2023-04-05T12:27:46.687Z,4.57
2023-04-05T12:30:17.236Z,5.40
2023-04-05T12:32:52.503Z,3.40
2023-04-05T12:35:22.679Z,5.00
2023-04-05T12:37:52.228Z,3.90
2023-04-05T12:40:24.555Z,4.30
2023-04-05T12:42:53.229Z,7.93
2023-04-05T12:45:25.036Z,7.13
2023-04-05T12:47:58.227Z,5.63
2023-04-05T12:50:30.762Z,5.38
2023-04-05T12:53:00.211Z,8.77
2023-04-05T12:55:29.730Z,3.65
2023-04-05T12:58:00.915Z,5.97
2023-04-05T13:00:31.098Z,5.75
2023-04-05T13:03:01.430Z,5.00
2023-04-05T13:05:31.070Z,4.38
2023-04-05T13:07:59.700Z,4.63
2023-04-05T13:10:28.037Z,5.70
2023-04-05T13:12:56.581Z,3.72
2023-04-05T13:15:24.756Z,4.43
2023-04-05T13:17:54.945Z,6.00
2023-04-05T13:20:25.038Z,3.88
2023-04-05T13:22:53.299Z,3.53
2023-04-05T13:25:21.702Z,3.80
2023-04-05T13:27:50.255Z,5.50
2023-04-05T13:30:18.992Z,3.85
2023-04-05T13:32:47.381Z,5.38
2023-04-05T13:35:15.632Z,3.72
2023-04-05T13:37:45.220Z,8.13
2023-04-05T13:40:13.756Z,7.03
2023-04-05T13:42:42.045Z,3.33
2023-04-05T13:45:11.041Z,2.95
2023-04-05T13:47:39.534Z,5.30
2023-04-05T13:50:09.148Z,7.70
2023-04-05T13:52:37.568Z,3.93
2023-04-05T13:55:07.913Z,3.35
2023-04-05T13:57:36.115Z,4.68
2023-04-05T14:00:04.865Z,3.50
2023-04-05T14:02:40.071Z,3.63
2023-04-05T14:05:09.566Z,4.45
2023-04-05T14:07:38.160Z,4.63
2023-04-05T14:10:08.737Z,4.68
2023-04-05T14:12:37.195Z,5.80
2023-04-05T14:15:06.313Z,4.88
2023-04-05T14:17:34.828Z,3.47
2023-04-05T14:20:04.746Z,4.85
2023-04-05T14:22:33.121Z,5.68
2023-04-05T14:25:01.606Z,5.72
2023-04-05T14:27:31.359Z,5.25
2023-04-05T14:29:59.829Z,3.63
2023-04-05T14:32:28.245Z,3.53
2023-04-05T14:34:56.548Z,3.97
2023-04-05T14:37:24.926Z,5.18
2023-04-05T14:39:53.270Z,2.90
2023-04-05T14:42:22.854Z,4.65
2023-04-05T14:44:52.908Z,4.70
2023-04-05T14:47:21.412Z,3.95
2023-04-05T14:49:49.709Z,3.30
2023-04-05T14:52:18.058Z,4.57
2023-04-05T14:54:46.369Z,5.45
2023-04-05T14:57:14.695Z,8.15
2023-04-05T14:59:43.416Z,4.65
2023-04-05T15:02:13.503Z,6.28
2023-04-05T15:04:41.991Z,4.22
2023-04-05T15:07:10.392Z,5.40
2023-04-05T15:09:38.694Z,5.85
2023-04-05T15:12:08.004Z,6.30
2023-04-05T15:14:36.374Z,5.03
2023-04-05T15:17:04.707Z,5.85
2023-04-05T15:19:35.509Z,4.27
2023-04-05T15:22:03.951Z,3.70
2023-04-05T15:24:32.549Z,7.28
2023-04-05T15:27:02.800Z,4.80
2023-04-05T15:29:32.415Z,5.97
2023-04-05T15:32:01.299Z,5.72
2023-04-05T15:34:30.763Z,6.70
2023-04-05T15:37:00.508Z,5.90
2023-04-05T15:39:29.004Z,5.63
2023-04-05T15:41:57.968Z,4.70
2023-04-05T15:44:26.741Z,4.47
2023-04-05T15:46:55.245Z,5.25
2023-04-05T15:49:23.542Z,5.25
2023-04-05T15:51:51.886Z,19.38
2023-04-05T15:54:21.587Z,11.00
2023-04-05T15:56:49.969Z,10.00
2023-04-05T15:59:18.457Z,6.78
2023-04-05T16:01:46.956Z,5.30
2023-04-05T16:04:15.840Z,6.47
2023-04-05T16:06:44.378Z,5.30
2023-04-05T16:09:12.699Z,8.05
2023-04-05T16:11:42.551Z,3.67
2023-04-05T16:14:11.690Z,6.60
2023-04-05T16:16:50.081Z,4.80
2023-04-05T16:19:25.628Z,5.80
2023-04-05T16:21:53.965Z,7.18
2023-04-05T16:24:22.557Z,6.60
2023-04-05T16:26:52.376Z,4.57
2023-04-05T16:29:20.704Z,4.32
2023-04-05T16:31:49.108Z,4.95
2023-04-05T16:34:17.560Z,3.45
2023-04-05T16:36:45.899Z,5.50
2023-04-05T16:39:14.225Z,5.47
2023-04-05T16:41:42.607Z,5.60
2023-04-05T16:44:12.373Z,5.95
2023-04-05T16:46:40.774Z,5.82
2023-04-05T16:49:09.253Z,4.22
2023-04-05T16:51:37.575Z,6.35
2023-04-05T16:54:06.262Z,3.78
2023-04-05T16:56:34.693Z,4.33
2023-04-05T16:59:05.050Z,6.07
2023-04-05T17:01:36.636Z,4.40
2023-04-05T17:04:05.188Z,5.13
2023-04-05T17:06:33.600Z,6.93
2023-04-05T17:09:02.224Z,8.53
2023-04-05T17:11:30.848Z,7.07
2023-04-05T17:13:59.631Z,5.43
2023-04-05T17:16:28.273Z,5.15
2023-04-05T17:18:58.102Z,4.65
2023-04-05T17:21:27.494Z,5.50
2023-04-05T17:23:56.106Z,3.45
2023-04-05T17:26:24.774Z,4.40
2023-04-05T17:28:53.137Z,4.30
2023-04-05T17:31:21.488Z,3.80
2023-04-05T17:33:49.819Z,3.75
2023-04-05T17:36:19.730Z,4.80
2023-04-05T17:38:48.123Z,4.75
2023-04-05T17:41:16.570Z,5.82
2023-04-05T17:43:45.023Z,4.65
2023-04-05T17:46:14.897Z,4.95
2023-04-05T17:48:43.391Z,5.80
2023-04-05T17:51:11.743Z,8.80
2023-04-05T17:53:41.471Z,7.78
2023-04-05T17:56:09.873Z,9.88
2023-04-05T17:58:38.117Z,6.85
2023-04-05T18:01:06.496Z,6.57
2023-04-05T18:03:34.935Z,4.32
2023-04-05T18:06:03.308Z,7.28
2023-04-05T18:08:31.722Z,7.53
2023-04-05T18:11:01.781Z,4.88
2023-04-05T18:13:31.224Z,5.70
2023-04-05T18:16:01.040Z,8.48
2023-04-05T18:18:29.395Z,8.15
2023-04-05T18:21:01.782Z,9.00
2023-04-05T18:23:30.125Z,10.32
2023-04-05T18:25:59.473Z,10.30
2023-04-05T18:28:29.303Z,11.23
2023-04-05T18:30:57.618Z,10.85
2023-04-05T18:33:25.952Z,5.53
2023-04-05T18:35:54.352Z,6.20
2023-04-05T18:38:22.716Z,8.20
2023-04-05T18:40:51.306Z,4.30
2023-04-05T18:43:19.594Z,5.82
2023-04-05T18:45:49.347Z,5.05
2023-04-05T18:48:17.670Z,6.07
2023-04-05T18:50:46.068Z,4.47
2023-04-05T18:53:14.355Z,6.53
2023-04-05T18:55:42.732Z,6.63
2023-04-05T18:58:11.145Z,6.70
2023-04-05T19:00:39.516Z,10.15
2023-04-05T19:03:09.374Z,10.57
2023-04-05T19:05:37.896Z,8.60
2023-04-05T19:08:06.647Z,10.77
2023-04-05T19:10:37.138Z,18.33
2023-04-05T19:13:05.510Z,24.70
2023-04-05T19:15:34.073Z,20.88
2023-04-05T19:18:02.433Z,11.55
2023-04-05T19:20:32.368Z,8.98
2023-04-05T19:23:00.836Z,7.22
2023-04-05T19:25:29.188Z,7.03
2023-04-05T19:27:58.133Z,7.90
2023-04-05T19:30:27.700Z,7.88
2023-04-05T19:32:56.738Z,5.50
2023-04-05T19:35:25.425Z,6.47
2023-04-05T19:37:55.119Z,9.80
2023-04-05T19:40:25.233Z,10.85
2023-04-05T19:42:54.035Z,11.20
2023-04-05T19:45:26.719Z,10.40
2023-04-05T19:47:57.045Z,13.15
2023-04-05T19:50:46.207Z,16.20
2023-04-05T19:53:43.176Z,14.38
2023-04-05T19:56:14.618Z,19.23
2023-04-05T19:58:43.418Z,22.75
2023-04-05T20:01:11.982Z,26.70
2023-04-05T20:03:42.095Z,28.85
2023-04-05T20:06:12.506Z,27.27
2023-04-05T20:08:43.373Z,31.15
2023-04-05T20:11:13.850Z,29.80
2023-04-05T20:13:47.319Z,27.55
2023-04-05T20:16:16.582Z,24.90
2023-04-05T20:18:49.103Z,27.23
2023-04-05T20:21:18.130Z,22.58
2023-04-05T20:23:47.976Z,21.38
2023-04-05T20:26:17.825Z,17.65
2023-04-05T20:28:53.458Z,16.92
2023-04-05T20:31:23.715Z,15.60
2023-04-05T20:33:55.491Z,14.27
2023-04-05T20:36:26.210Z,12.70
2023-04-05T20:38:55.943Z,12.98
2023-04-05T20:41:24.286Z,14.50
2023-04-05T20:43:52.689Z,11.70
2023-04-05T20:46:22.105Z,10.90
2023-04-05T20:48:51.105Z,13.57
2023-04-05T20:51:19.641Z,12.63
2023-04-05T20:53:47.941Z,14.98
2023-04-05T20:56:18.051Z,15.50
2023-04-05T20:58:46.486Z,14.20
2023-04-05T21:01:14.879Z,11.82
2023-04-05T21:03:44.091Z,11.45
2023-04-05T21:06:12.611Z,11.07
2023-04-05T21:08:41.698Z,12.90
2023-04-05T21:11:11.718Z,9.93
2023-04-05T21:13:42.284Z,13.50
2023-04-05T21:16:10.766Z,14.37
2023-04-05T21:18:39.184Z,10.75
2023-04-05T21:21:07.638Z,9.15
2023-04-05T21:23:36.078Z,9.65
2023-04-05T21:26:06.080Z,11.70
2023-04-05T21:28:34.528Z,10.32
2023-04-05T21:31:04.384Z,10.32
2023-04-05T21:33:33.001Z,11.27
2023-04-05T21:36:02.989Z,11.68
2023-04-05T21:38:31.518Z,12.55
2023-04-05T21:40:59.886Z,11.43
2023-04-05T21:43:28.411Z,13.80
2023-04-05T21:45:56.865Z,14.73
2023-04-05T21:48:27.947Z,15.65
2023-04-05T21:50:56.475Z,13.32
2023-04-05T21:53:25.560Z,10.48
2023-04-05T21:55:54.382Z,13.55
2023-04-05T21:58:22.856Z,12.85
2023-04-05T22:00:51.236Z,12.48
2023-04-05T22:03:19.533Z,12.30
2023-04-05T22:05:49.387Z,11.83
2023-04-05T22:08:17.675Z,11.18
2023-04-05T22:10:46.058Z,10.77
2023-04-05T22:13:14.550Z,15.20
2023-04-05T22:15:44.101Z,11.25
2023-04-05T22:18:12.726Z,13.70
2023-04-05T22:20:41.149Z,16.25
2023-04-05T22:23:10.980Z,12.90
2023-04-05T22:25:39.284Z,10.85
2023-04-05T22:28:07.608Z,9.80
2023-04-05T22:30:43.798Z,11.38
2023-04-05T22:33:13.802Z,8.80
2023-04-05T22:35:42.525Z,11.00
2023-04-05T22:38:12.464Z,12.25
2023-04-05T22:40:40.780Z,12.90
2023-04-05T22:43:09.683Z,14.30
2023-04-05T22:45:38.056Z,10.38
2023-04-05T22:48:07.196Z,9.85
2023-04-05T22:50:35.651Z,14.27
2023-04-05T22:53:03.927Z,15.20
2023-04-05T22:55:33.621Z,14.63
2023-04-05T22:58:01.947Z,14.32
2023-04-05T23:00:30.381Z,13.70
2023-04-05T23:02:58.729Z,14.40
2023-04-05T23:05:27.302Z,13.68
2023-04-05T23:07:55.748Z,17.45
2023-04-05T23:10:24.080Z,14.93
2023-04-05T23:12:53.767Z,12.13
2023-04-05T23:15:22.073Z,12.48
2023-04-05T23:17:50.721Z,10.25
2023-04-05T23:20:19.058Z,12.45
2023-04-05T23:22:47.976Z,11.32
2023-04-05T23:25:16.557Z,7.97
2023-04-05T23:27:44.984Z,9.05
2023-04-05T23:30:15.153Z,8.15
2023-04-05T23:32:43.464Z,9.77
2023-04-05T23:35:11.839Z,11.63
2023-04-05T23:37:40.404Z,9.47
2023-04-05T23:40:09.811Z,10.90
2023-04-05T23:42:38.225Z,10.68
2023-04-05T23:45:09.027Z,11.50
2023-04-05T23:47:40.576Z,11.20
2023-04-05T23:50:10.791Z,11.33
2023-04-05T23:52:39.243Z,11.57
2023-04-05T23:55:08.284Z,12.70
2023-04-05T23:57:36.523Z,11.23
